sensor_id;sensor_type;location;lat;lon;timestamp;pressure;altitude;pressure_sealevel;temperature;humidity
79250;BME280;68679;51.030;7.584;2024-03-29T00:01:48;96915.44;;;4.63;67.51
79250;BME280;68679;51.030;7.584;2024-03-29T00:04:13;96917.75;;;4.65;67.61
79250;BME280;68679;51.030;7.584;2024-03-29T00:06:39;96915.44;;;4.63;67.57
79250;BME280;68679;51.030;7.584;2024-03-29T00:09:04;96921.13;;;4.65;67.37
79250;BME280;68679;51.030;7.584;2024-03-29T00:11:29;96908.97;;;4.61;67.46
79250;BME280;68679;51.030;7.584;2024-03-29T00:13:56;96916.28;;;4.58;67.33
79250;BME280;68679;51.030;7.584;2024-03-29T00:16:21;96910.03;;;4.60;67.51
79250;BME280;68679;51.030;7.584;2024-03-29T00:18:50;96917.06;;;4.59;67.50
79250;BME280;68679;51.030;7.584;2024-03-29T00:21:15;96898.72;;;4.55;67.44
79250;BME280;68679;51.030;7.584;2024-03-29T00:23:41;96897.91;;;4.55;67.63
79250;BME280;68679;51.030;7.584;2024-03-29T00:26:06;96898.19;;;4.53;67.65
79250;BME280;68679;51.030;7.584;2024-03-29T00:28:32;96892.72;;;4.55;67.95
79250;BME280;68679;51.030;7.584;2024-03-29T00:30:57;96884.75;;;4.51;67.49
79250;BME280;68679;51.030;7.584;2024-03-29T00:33:23;96874.16;;;4.48;67.61
79250;BME280;68679;51.030;7.584;2024-03-29T00:35:48;96883.47;;;4.49;67.68
79250;BME280;68679;51.030;7.584;2024-03-29T00:38:13;96887.63;;;4.50;67.47
79250;BME280;68679;51.030;7.584;2024-03-29T00:40:39;96877.81;;;4.47;67.30
79250;BME280;68679;51.030;7.584;2024-03-29T00:43:04;96878.88;;;4.46;67.22
79250;BME280;68679;51.030;7.584;2024-03-29T00:45:29;96879.41;;;4.43;67.40
79250;BME280;68679;51.030;7.584;2024-03-29T00:47:55;96875.88;;;4.39;67.45
79250;BME280;68679;51.030;7.584;2024-03-29T00:50:20;96869.34;;;4.41;67.24
79250;BME280;68679;51.030;7.584;2024-03-29T00:52:45;96879.53;;;4.38;67.23
79250;BME280;68679;51.030;7.584;2024-03-29T00:55:13;96879.03;;;4.36;67.39
79250;BME280;68679;51.030;7.584;2024-03-29T00:57:38;96887.56;;;4.36;67.60
79250;BME280;68679;51.030;7.584;2024-03-29T01:00:04;96891.50;;;4.34;67.83
79250;BME280;68679;51.030;7.584;2024-03-29T01:02:30;96900.28;;;4.38;67.58
79250;BME280;68679;51.030;7.584;2024-03-29T01:04:55;96904.19;;;4.35;67.73
79250;BME280;68679;51.030;7.584;2024-03-29T01:07:20;96899.78;;;4.36;67.71
79250;BME280;68679;51.030;7.584;2024-03-29T01:09:45;96904.50;;;4.34;68.15
79250;BME280;68679;51.030;7.584;2024-03-29T01:12:11;96893.06;;;4.35;68.11
79250;BME280;68679;51.030;7.584;2024-03-29T01:14:36;96903.44;;;4.35;68.05
79250;BME280;68679;51.030;7.584;2024-03-29T01:17:02;96894.41;;;4.32;68.07
79250;BME280;68679;51.030;7.584;2024-03-29T01:19:27;96886.81;;;4.36;68.00
79250;BME280;68679;51.030;7.584;2024-03-29T01:21:53;96886.03;;;4.35;68.56
79250;BME280;68679;51.030;7.584;2024-03-29T01:24:18;96890.47;;;4.35;68.25
79250;BME280;68679;51.030;7.584;2024-03-29T01:26:43;96892.00;;;4.36;68.19
79250;BME280;68679;51.030;7.584;2024-03-29T01:29:09;96895.09;;;4.38;68.18
79250;BME280;68679;51.030;7.584;2024-03-29T01:31:35;96911.44;;;4.38;68.53
79250;BME280;68679;51.030;7.584;2024-03-29T01:34:00;96913.72;;;4.40;68.32
79250;BME280;68679;51.030;7.584;2024-03-29T01:36:27;96914.50;;;4.40;68.74
79250;BME280;68679;51.030;7.584;2024-03-29T01:38:53;96916.81;;;4.42;68.21
79250;BME280;68679;51.030;7.584;2024-03-29T01:41:21;96925.88;;;4.44;68.36
79250;BME280;68679;51.030;7.584;2024-03-29T01:43:48;96911.34;;;4.43;68.57
79250;BME280;68679;51.030;7.584;2024-03-29T01:46:13;96909.44;;;4.49;68.58
79250;BME280;68679;51.030;7.584;2024-03-29T01:48:39;96911.00;;;4.50;68.42
79250;BME280;68679;51.030;7.584;2024-03-29T01:51:04;96876.50;;;4.49;68.56
79250;BME280;68679;51.030;7.584;2024-03-29T01:53:30;96873.59;;;4.51;68.79
79250;BME280;68679;51.030;7.584;2024-03-29T01:55:56;96871.47;;;4.53;68.91
79250;BME280;68679;51.030;7.584;2024-03-29T01:58:22;96875.34;;;4.55;69.02
79250;BME280;68679;51.030;7.584;2024-03-29T02:00:53;96886.41;;;4.61;69.03
79250;BME280;68679;51.030;7.584;2024-03-29T02:03:21;96884.59;;;4.62;69.41
79250;BME280;68679;51.030;7.584;2024-03-29T02:05:48;96872.09;;;4.64;69.11
79250;BME280;68679;51.030;7.584;2024-03-29T02:08:14;96864.53;;;4.67;69.07
79250;BME280;68679;51.030;7.584;2024-03-29T02:10:40;96862.88;;;4.71;69.15
79250;BME280;68679;51.030;7.584;2024-03-29T02:13:06;96882.78;;;4.76;68.95
79250;BME280;68679;51.030;7.584;2024-03-29T02:15:32;96873.38;;;4.80;69.41
79250;BME280;68679;51.030;7.584;2024-03-29T02:17:57;96868.97;;;4.80;69.31
79250;BME280;68679;51.030;7.584;2024-03-29T02:20:23;96875.88;;;4.85;68.85
79250;BME280;68679;51.030;7.584;2024-03-29T02:23:02;96857.44;;;4.87;69.25
79250;BME280;68679;51.030;7.584;2024-03-29T02:25:31;96854.25;;;4.90;69.21
79250;BME280;68679;51.030;7.584;2024-03-29T02:27:57;96850.50;;;4.96;68.90
79250;BME280;68679;51.030;7.584;2024-03-29T02:30:23;96853.38;;;4.94;69.89
79250;BME280;68679;51.030;7.584;2024-03-29T02:32:48;96856.19;;;4.98;69.11
79250;BME280;68679;51.030;7.584;2024-03-29T02:35:14;96855.03;;;5.04;69.81
79250;BME280;68679;51.030;7.584;2024-03-29T02:37:39;96803.09;;;5.04;70.31
79250;BME280;68679;51.030;7.584;2024-03-29T02:40:05;96782.38;;;5.13;70.09
79250;BME280;68679;51.030;7.584;2024-03-29T02:42:31;96782.09;;;5.14;69.40
79250;BME280;68679;51.030;7.584;2024-03-29T02:44:57;96776.03;;;5.19;69.83
79250;BME280;68679;51.030;7.584;2024-03-29T02:47:22;96768.44;;;5.22;69.70
79250;BME280;68679;51.030;7.584;2024-03-29T02:49:48;96799.78;;;5.26;69.71
79250;BME280;68679;51.030;7.584;2024-03-29T02:52:13;96799.22;;;5.29;69.25
79250;BME280;68679;51.030;7.584;2024-03-29T02:54:40;96800.75;;;5.30;69.54
79250;BME280;68679;51.030;7.584;2024-03-29T02:57:05;96808.44;;;5.35;69.69
79250;BME280;68679;51.030;7.584;2024-03-29T02:59:30;96809.22;;;5.35;69.87
79250;BME280;68679;51.030;7.584;2024-03-29T03:01:56;96793.91;;;5.34;69.58
79250;BME280;68679;51.030;7.584;2024-03-29T03:04:21;96786.13;;;5.34;69.82
79250;BME280;68679;51.030;7.584;2024-03-29T03:06:47;96786.59;;;5.36;69.68
79250;BME280;68679;51.030;7.584;2024-03-29T03:09:12;96781.09;;;5.37;69.46
79250;BME280;68679;51.030;7.584;2024-03-29T03:11:55;96789.09;;;5.41;69.71
79250;BME280;68679;51.030;7.584;2024-03-29T03:14:21;96785.88;;;5.44;69.89
79250;BME280;68679;51.030;7.584;2024-03-29T03:16:47;96784.56;;;5.47;69.68
79250;BME280;68679;51.030;7.584;2024-03-29T03:19:12;96780.38;;;5.46;69.77
79250;BME280;68679;51.030;7.584;2024-03-29T03:21:37;96793.13;;;5.47;69.86
79250;BME280;68679;51.030;7.584;2024-03-29T03:24:03;96787.63;;;5.49;69.78
79250;BME280;68679;51.030;7.584;2024-03-29T03:26:29;96790.69;;;5.51;69.93
79250;BME280;68679;51.030;7.584;2024-03-29T03:28:54;96794.06;;;5.51;70.26
79250;BME280;68679;51.030;7.584;2024-03-29T03:31:20;96787.81;;;5.52;69.83
79250;BME280;68679;51.030;7.584;2024-03-29T03:33:45;96796.06;;;5.54;69.87
79250;BME280;68679;51.030;7.584;2024-03-29T03:36:10;96804.84;;;5.58;69.82
79250;BME280;68679;51.030;7.584;2024-03-29T03:38:36;96802.50;;;5.57;70.31
79250;BME280;68679;51.030;7.584;2024-03-29T03:41:02;96802.50;;;5.57;69.92
79250;BME280;68679;51.030;7.584;2024-03-29T03:43:28;96803.78;;;5.59;69.75
79250;BME280;68679;51.030;7.584;2024-03-29T03:45:53;96805.31;;;5.60;70.01
79250;BME280;68679;51.030;7.584;2024-03-29T03:48:18;96785.28;;;5.61;69.83
79250;BME280;68679;51.030;7.584;2024-03-29T03:50:44;96781.91;;;5.60;70.18
79250;BME280;68679;51.030;7.584;2024-03-29T03:53:09;96786.03;;;5.61;70.09
79250;BME280;68679;51.030;7.584;2024-03-29T03:55:37;96774.00;;;5.65;70.31
79250;BME280;68679;51.030;7.584;2024-03-29T03:58:03;96772.94;;;5.67;69.93
79250;BME280;68679;51.030;7.584;2024-03-29T04:00:28;96783.34;;;5.67;70.00
79250;BME280;68679;51.030;7.584;2024-03-29T04:02:53;96784.28;;;5.71;69.85
79250;BME280;68679;51.030;7.584;2024-03-29T04:05:19;96786.88;;;5.71;69.85
79250;BME280;68679;51.030;7.584;2024-03-29T04:07:45;96793.03;;;5.75;69.85
79250;BME280;68679;51.030;7.584;2024-03-29T04:10:11;96788.13;;;5.73;70.07
79250;BME280;68679;51.030;7.584;2024-03-29T04:12:36;96793.03;;;5.75;70.13
79250;BME280;68679;51.030;7.584;2024-03-29T04:15:02;96789.84;;;5.78;70.16
79250;BME280;68679;51.030;7.584;2024-03-29T04:17:28;96776.84;;;5.78;70.08
79250;BME280;68679;51.030;7.584;2024-03-29T04:19:56;96771.66;;;5.78;70.14
79250;BME280;68679;51.030;7.584;2024-03-29T04:22:21;96769.97;;;5.82;70.15
79250;BME280;68679;51.030;7.584;2024-03-29T04:24:46;96764.78;;;5.82;70.19
79250;BME280;68679;51.030;7.584;2024-03-29T04:27:11;96766.34;;;5.83;70.31
79250;BME280;68679;51.030;7.584;2024-03-29T04:29:37;96752.25;;;5.84;70.25
79250;BME280;68679;51.030;7.584;2024-03-29T04:32:02;96759.00;;;5.85;70.38
79250;BME280;68679;51.030;7.584;2024-03-29T04:34:27;96764.97;;;5.85;70.23
79250;BME280;68679;51.030;7.584;2024-03-29T04:36:53;96765.44;;;5.87;70.34
79250;BME280;68679;51.030;7.584;2024-03-29T04:39:18;96764.38;;;5.88;70.48
79250;BME280;68679;51.030;7.584;2024-03-29T04:41:43;96745.13;;;5.89;70.48
79250;BME280;68679;51.030;7.584;2024-03-29T04:44:09;96748.19;;;5.91;70.45
79250;BME280;68679;51.030;7.584;2024-03-29T04:46:34;96739.34;;;5.93;70.55
79250;BME280;68679;51.030;7.584;2024-03-29T04:48:59;96753.88;;;5.94;70.40
79250;BME280;68679;51.030;7.584;2024-03-29T04:51:24;96754.63;;;5.94;70.66
79250;BME280;68679;51.030;7.584;2024-03-29T04:53:50;96764.47;;;5.97;70.51
79250;BME280;68679;51.030;7.584;2024-03-29T04:56:15;96754.06;;;5.97;70.68
79250;BME280;68679;51.030;7.584;2024-03-29T04:58:41;96743.34;;;5.99;70.81
79250;BME280;68679;51.030;7.584;2024-03-29T05:01:06;96737.38;;;5.98;70.47
79250;BME280;68679;51.030;7.584;2024-03-29T05:03:32;96733.72;;;5.99;70.59
79250;BME280;68679;51.030;7.584;2024-03-29T05:05:57;96744.28;;;6.03;70.83
79250;BME280;68679;51.030;7.584;2024-03-29T05:08:22;96754.25;;;6.01;70.56
79250;BME280;68679;51.030;7.584;2024-03-29T05:10:48;96757.75;;;6.05;70.69
79250;BME280;68679;51.030;7.584;2024-03-29T05:13:15;96755.94;;;6.05;70.87
79250;BME280;68679;51.030;7.584;2024-03-29T05:15:40;96757.47;;;6.06;70.96
79250;BME280;68679;51.030;7.584;2024-03-29T05:18:05;96752.25;;;6.06;70.62
79250;BME280;68679;51.030;7.584;2024-03-29T05:20:31;96754.59;;;6.08;71.37
79250;BME280;68679;51.030;7.584;2024-03-29T05:23:00;96750.59;;;6.10;70.96
79250;BME280;68679;51.030;7.584;2024-03-29T05:25:26;96746.16;;;6.11;70.97
79250;BME280;68679;51.030;7.584;2024-03-29T05:27:51;96745.09;;;6.12;71.19
79250;BME280;68679;51.030;7.584;2024-03-29T05:30:17;96745.09;;;6.12;70.99
79250;BME280;68679;51.030;7.584;2024-03-29T05:32:42;96750.78;;;6.14;71.10
79250;BME280;68679;51.030;7.584;2024-03-29T05:35:08;96752.91;;;6.12;71.15
79250;BME280;68679;51.030;7.584;2024-03-29T05:37:34;96753.41;;;6.14;71.37
79250;BME280;68679;51.030;7.584;2024-03-29T05:40:00;96760.91;;;6.15;71.22
79250;BME280;68679;51.030;7.584;2024-03-29T05:42:28;96765.78;;;6.17;71.35
79250;BME280;68679;51.030;7.584;2024-03-29T05:44:54;96767.63;;;6.16;71.44
79250;BME280;68679;51.030;7.584;2024-03-29T05:47:19;96778.81;;;6.17;71.55
79250;BME280;68679;51.030;7.584;2024-03-29T05:49:45;96777.47;;;6.20;71.48
79250;BME280;68679;51.030;7.584;2024-03-29T05:52:10;96778.22;;;6.20;71.59
79250;BME280;68679;51.030;7.584;2024-03-29T05:54:39;96775.31;;;6.22;71.48
79250;BME280;68679;51.030;7.584;2024-03-29T05:57:05;96785.13;;;6.25;71.50
79250;BME280;68679;51.030;7.584;2024-03-29T05:59:32;96777.03;;;6.26;71.58
79250;BME280;68679;51.030;7.584;2024-03-29T06:01:57;96770.00;;;6.27;71.35
79250;BME280;68679;51.030;7.584;2024-03-29T06:04:22;96768.16;;;6.27;71.62
79250;BME280;68679;51.030;7.584;2024-03-29T06:06:54;96782.38;;;6.30;71.51
79250;BME280;68679;51.030;7.584;2024-03-29T06:09:19;96789.13;;;6.31;71.68
79250;BME280;68679;51.030;7.584;2024-03-29T06:11:45;96771.41;;;6.33;71.93
79250;BME280;68679;51.030;7.584;2024-03-29T06:14:10;96779.66;;;6.35;71.67
79250;BME280;68679;51.030;7.584;2024-03-29T06:16:35;96783.81;;;6.36;71.57
79250;BME280;68679;51.030;7.584;2024-03-29T06:19:19;96773.88;;;6.38;71.58
79250;BME280;68679;51.030;7.584;2024-03-29T06:21:44;96774.81;;;6.42;71.71
79250;BME280;68679;51.030;7.584;2024-03-29T06:24:10;96773.72;;;6.43;71.83
79250;BME280;68679;51.030;7.584;2024-03-29T06:26:39;96778.34;;;6.46;71.47
79250;BME280;68679;51.030;7.584;2024-03-29T06:29:05;96770.22;;;6.48;71.46
79250;BME280;68679;51.030;7.584;2024-03-29T06:31:30;96775.13;;;6.49;71.87
79250;BME280;68679;51.030;7.584;2024-03-29T06:33:57;96780.81;;;6.51;71.46
79250;BME280;68679;51.030;7.584;2024-03-29T06:36:23;96777.59;;;6.54;71.37
79250;BME280;68679;51.030;7.584;2024-03-29T06:38:48;96778.09;;;6.56;71.21
79250;BME280;68679;51.030;7.584;2024-03-29T06:41:14;96771.06;;;6.57;71.28
79250;BME280;68679;51.030;7.584;2024-03-29T06:43:42;96782.38;;;6.61;71.13
79250;BME280;68679;51.030;7.584;2024-03-29T06:46:10;96782.09;;;6.62;71.43
79250;BME280;68679;51.030;7.584;2024-03-29T06:48:35;96783.63;;;6.63;71.34
79250;BME280;68679;51.030;7.584;2024-03-29T06:51:02;96800.97;;;6.68;71.30
79250;BME280;68679;51.030;7.584;2024-03-29T06:53:27;96800.66;;;6.69;71.37
79250;BME280;68679;51.030;7.584;2024-03-29T06:55:54;96800.06;;;6.72;71.37
79250;BME280;68679;51.030;7.584;2024-03-29T06:58:20;96798.22;;;6.73;71.40
79250;BME280;68679;51.030;7.584;2024-03-29T07:00:46;96805.13;;;6.78;71.37
79250;BME280;68679;51.030;7.584;2024-03-29T07:03:14;96811.09;;;6.78;71.27
79250;BME280;68679;51.030;7.584;2024-03-29T07:05:40;96818.63;;;6.80;71.04
79250;BME280;68679;51.030;7.584;2024-03-29T07:08:06;96814.66;;;6.82;71.52
79250;BME280;68679;51.030;7.584;2024-03-29T07:10:31;96812.50;;;6.84;71.43
79250;BME280;68679;51.030;7.584;2024-03-29T07:12:56;96815.59;;;6.86;71.64
79250;BME280;68679;51.030;7.584;2024-03-29T07:15:22;96818.66;;;6.88;72.11
79250;BME280;68679;51.030;7.584;2024-03-29T07:17:47;96811.03;;;6.92;71.73
79250;BME280;68679;51.030;7.584;2024-03-29T07:20:15;96816.38;;;6.95;71.41
79250;BME280;68679;51.030;7.584;2024-03-29T07:22:40;96824.66;;;6.97;71.29
79250;BME280;68679;51.030;7.584;2024-03-29T07:25:06;96829.59;;;6.99;71.37
79250;BME280;68679;51.030;7.584;2024-03-29T07:27:32;96827.44;;;7.01;71.28
79250;BME280;68679;51.030;7.584;2024-03-29T07:30:00;96832.50;;;7.06;71.52
79250;BME280;68679;51.030;7.584;2024-03-29T07:32:25;96836.34;;;7.09;71.60
79250;BME280;68679;51.030;7.584;2024-03-29T07:34:50;96839.13;;;7.12;71.73
79250;BME280;68679;51.030;7.584;2024-03-29T07:37:16;96836.97;;;7.14;71.12
79250;BME280;68679;51.030;7.584;2024-03-29T07:39:43;96836.66;;;7.16;71.11
79250;BME280;68679;51.030;7.584;2024-03-29T07:42:08;96839.75;;;7.18;71.27
79250;BME280;68679;51.030;7.584;2024-03-29T07:44:34;96838.84;;;7.22;71.23
79250;BME280;68679;51.030;7.584;2024-03-29T07:46:59;96849.75;;;7.24;71.46
79250;BME280;68679;51.030;7.584;2024-03-29T07:49:24;96837.16;;;7.26;71.19
79250;BME280;68679;51.030;7.584;2024-03-29T07:51:50;96841.31;;;7.28;71.21
79250;BME280;68679;51.030;7.584;2024-03-29T07:54:15;96839.63;;;7.32;70.97
79250;BME280;68679;51.030;7.584;2024-03-29T07:56:40;96844.53;;;7.33;71.07
79250;BME280;68679;51.030;7.584;2024-03-29T07:59:06;96855.91;;;7.37;71.08
79250;BME280;68679;51.030;7.584;2024-03-29T08:01:31;96852.69;;;7.40;71.00
79250;BME280;68679;51.030;7.584;2024-03-29T08:03:56;96861.75;;;7.43;70.93
79250;BME280;68679;51.030;7.584;2024-03-29T08:06:22;96860.34;;;7.45;71.00
79250;BME280;68679;51.030;7.584;2024-03-29T08:08:49;96863.72;;;7.46;71.03
79250;BME280;68679;51.030;7.584;2024-03-29T08:11:14;96867.59;;;7.48;71.00
79250;BME280;68679;51.030;7.584;2024-03-29T08:13:40;96857.63;;;7.50;70.98
79250;BME280;68679;51.030;7.584;2024-03-29T08:16:06;96852.56;;;7.54;71.36
79250;BME280;68679;51.030;7.584;2024-03-29T08:18:32;96853.03;;;7.56;71.13
79250;BME280;68679;51.030;7.584;2024-03-29T08:20:58;96854.28;;;7.59;71.09
79250;BME280;68679;51.030;7.584;2024-03-29T08:23:25;96853.66;;;7.62;71.01
79250;BME280;68679;51.030;7.584;2024-03-29T08:25:50;96861.16;;;7.63;70.93
79250;BME280;68679;51.030;7.584;2024-03-29T08:28:17;96867.63;;;7.66;70.95
79250;BME280;68679;51.030;7.584;2024-03-29T08:30:43;96872.53;;;7.67;70.86
79250;BME280;68679;51.030;7.584;2024-03-29T08:33:08;96863.63;;;7.68;70.92
79250;BME280;68679;51.030;7.584;2024-03-29T08:35:34;96873.16;;;7.73;70.85
79250;BME280;68679;51.030;7.584;2024-03-29T08:38:00;96868.69;;;7.73;70.95
79250;BME280;68679;51.030;7.584;2024-03-29T08:40:27;96867.31;;;7.76;70.84
79250;BME280;68679;51.030;7.584;2024-03-29T08:42:57;96859.19;;;7.77;70.79
79250;BME280;68679;51.030;7.584;2024-03-29T08:45:23;96857.03;;;7.79;70.78
79250;BME280;68679;51.030;7.584;2024-03-29T08:47:48;96850.44;;;7.82;70.87
79250;BME280;68679;51.030;7.584;2024-03-29T08:50:14;96848.31;;;7.84;70.74
79250;BME280;68679;51.030;7.584;2024-03-29T08:52:39;96839.09;;;7.87;70.67
79250;BME280;68679;51.030;7.584;2024-03-29T08:55:06;96841.09;;;7.90;70.65
79250;BME280;68679;51.030;7.584;2024-03-29T08:57:31;96847.97;;;7.94;70.76
79250;BME280;68679;51.030;7.584;2024-03-29T08:59:56;96853.69;;;7.96;70.55
79250;BME280;68679;51.030;7.584;2024-03-29T09:02:22;96860.88;;;7.99;70.87
79250;BME280;68679;51.030;7.584;2024-03-29T09:04:47;96871.50;;;8.03;70.54
79250;BME280;68679;51.030;7.584;2024-03-29T09:07:12;96867.78;;;8.04;70.63
79250;BME280;68679;51.030;7.584;2024-03-29T09:09:37;96866.13;;;8.08;70.64
79250;BME280;68679;51.030;7.584;2024-03-29T09:12:06;96875.16;;;8.11;70.44
79250;BME280;68679;51.030;7.584;2024-03-29T09:14:32;96865.19;;;8.13;70.43
79250;BME280;68679;51.030;7.584;2024-03-29T09:16:57;96864.56;;;8.16;70.47
79250;BME280;68679;51.030;7.584;2024-03-29T09:19:22;96863.50;;;8.17;70.75
79250;BME280;68679;51.030;7.584;2024-03-29T09:21:49;96870.72;;;8.20;70.64
79250;BME280;68679;51.030;7.584;2024-03-29T09:24:14;96879.78;;;8.22;70.51
79250;BME280;68679;51.030;7.584;2024-03-29T09:26:42;96886.19;;;8.25;71.04
79250;BME280;68679;51.030;7.584;2024-03-29T09:29:07;96894.50;;;8.27;70.25
79250;BME280;68679;51.030;7.584;2024-03-29T09:31:32;96894.66;;;8.30;70.57
79250;BME280;68679;51.030;7.584;2024-03-29T09:33:57;96886.81;;;8.30;70.70
79250;BME280;68679;51.030;7.584;2024-03-29T09:36:23;96892.53;;;8.32;70.56
79250;BME280;68679;51.030;7.584;2024-03-29T09:38:52;96905.75;;;8.36;70.54
79250;BME280;68679;51.030;7.584;2024-03-29T09:41:18;96896.53;;;8.39;70.39
79250;BME280;68679;51.030;7.584;2024-03-29T09:43:45;96898.06;;;8.40;70.51
79250;BME280;68679;51.030;7.584;2024-03-29T09:46:12;96891.16;;;8.44;70.47
79250;BME280;68679;51.030;7.584;2024-03-29T09:48:40;96893.47;;;8.45;70.68
79250;BME280;68679;51.030;7.584;2024-03-29T09:51:07;96904.34;;;8.47;70.71
79250;BME280;68679;51.030;7.584;2024-03-29T09:53:34;96914.19;;;8.50;70.60
79250;BME280;68679;51.030;7.584;2024-03-29T09:56:00;96906.81;;;8.52;70.69
79250;BME280;68679;51.030;7.584;2024-03-29T09:58:26;96909.88;;;8.54;70.78
79250;BME280;68679;51.030;7.584;2024-03-29T10:00:52;96902.78;;;8.55;70.45
79250;BME280;68679;51.030;7.584;2024-03-29T10:03:17;96904.81;;;8.58;70.25
79250;BME280;68679;51.030;7.584;2024-03-29T10:05:46;96886.97;;;8.60;70.57
79250;BME280;68679;51.030;7.584;2024-03-29T10:08:12;96884.06;;;8.62;70.48
79250;BME280;68679;51.030;7.584;2024-03-29T10:10:40;96889.41;;;8.65;70.65
79250;BME280;68679;51.030;7.584;2024-03-29T10:13:06;96896.16;;;8.66;70.79
79250;BME280;68679;51.030;7.584;2024-03-29T10:15:32;96894.47;;;8.70;70.51
79250;BME280;68679;51.030;7.584;2024-03-29T10:18:02;96908.47;;;8.74;70.74
79250;BME280;68679;51.030;7.584;2024-03-29T10:20:28;96919.06;;;8.78;70.72
79250;BME280;68679;51.030;7.584;2024-03-29T10:22:53;96915.84;;;8.81;70.70
79250;BME280;68679;51.030;7.584;2024-03-29T10:25:19;96918.13;;;8.82;70.62
79250;BME280;68679;51.030;7.584;2024-03-29T10:27:45;96923.19;;;8.88;70.40
79250;BME280;68679;51.030;7.584;2024-03-29T10:30:11;96921.03;;;8.90;70.78
79250;BME280;68679;51.030;7.584;2024-03-29T10:32:37;96919.66;;;8.92;70.67
79250;BME280;68679;51.030;7.584;2024-03-29T10:35:05;96921.63;;;8.95;70.76
79250;BME280;68679;51.030;7.584;2024-03-29T10:37:30;96920.69;;;9.00;70.53
79250;BME280;68679;51.030;7.584;2024-03-29T10:40:00;96921.16;;;9.02;70.51
79250;BME280;68679;51.030;7.584;2024-03-29T10:42:26;96912.69;;;9.05;70.65
79250;BME280;68679;51.030;7.584;2024-03-29T10:44:52;96910.19;;;9.08;70.85
79250;BME280;68679;51.030;7.584;2024-03-29T10:47:19;96901.00;;;9.11;70.80
79250;BME280;68679;51.030;7.584;2024-03-29T10:49:49;96897.41;;;9.16;70.69
79250;BME280;68679;51.030;7.584;2024-03-29T10:52:16;96900.94;;;9.20;70.61
79250;BME280;68679;51.030;7.584;2024-03-29T10:54:44;96901.84;;;9.24;70.30
79250;BME280;68679;51.030;7.584;2024-03-29T10:57:16;96905.34;;;9.28;70.41
79250;BME280;68679;51.030;7.584;2024-03-29T10:59:52;96899.19;;;9.32;70.33
79250;BME280;68679;51.030;7.584;2024-03-29T11:05:17;96904.06;;;9.43;70.40
79250;BME280;68679;51.030;7.584;2024-03-29T11:07:43;96902.38;;;9.47;70.49
79250;BME280;68679;51.030;7.584;2024-03-29T11:10:29;96907.72;;;9.50;70.40
79250;BME280;68679;51.030;7.584;2024-03-29T11:13:05;96907.09;;;9.53;70.25
79250;BME280;68679;51.030;7.584;2024-03-29T11:15:37;96899.06;;;9.58;70.50
79250;BME280;68679;51.030;7.584;2024-03-29T11:18:03;96884.59;;;9.61;70.05
79250;BME280;68679;51.030;7.584;2024-03-29T11:20:29;96895.16;;;9.64;70.54
79250;BME280;68679;51.030;7.584;2024-03-29T11:23:04;96909.59;;;9.71;70.55
79250;BME280;68679;51.030;7.584;2024-03-29T11:25:42;96892.53;;;9.73;70.34
79250;BME280;68679;51.030;7.584;2024-03-29T11:28:09;96894.19;;;9.78;70.73
79250;BME280;68679;51.030;7.584;2024-03-29T11:30:47;96891.69;;;9.81;70.46
79250;BME280;68679;51.030;7.584;2024-03-29T11:33:29;96903.81;;;9.86;70.25
79250;BME280;68679;51.030;7.584;2024-03-29T11:35:55;96905.81;;;9.89;70.13
79250;BME280;68679;51.030;7.584;2024-03-29T11:38:21;96905.94;;;9.92;70.50
79250;BME280;68679;51.030;7.584;2024-03-29T11:41:03;96908.69;;;9.96;70.65
79250;BME280;68679;51.030;7.584;2024-03-29T11:43:30;96912.53;;;9.99;70.39
79250;BME280;68679;51.030;7.584;2024-03-29T11:45:58;96919.75;;;10.02;70.25
79250;BME280;68679;51.030;7.584;2024-03-29T11:48:25;96936.66;;;10.04;69.73
79250;BME280;68679;51.030;7.584;2024-03-29T11:50:52;96925.88;;;10.06;70.07
79250;BME280;68679;51.030;7.584;2024-03-29T11:53:18;96935.72;;;10.09;70.14
79250;BME280;68679;51.030;7.584;2024-03-29T11:55:43;96935.81;;;10.12;70.51
79250;BME280;68679;51.030;7.584;2024-03-29T11:58:09;96952.28;;;10.13;70.01
79250;BME280;68679;51.030;7.584;2024-03-29T12:00:34;96943.81;;;10.16;70.17
79250;BME280;68679;51.030;7.584;2024-03-29T12:02:59;96936.72;;;10.16;70.08
79250;BME280;68679;51.030;7.584;2024-03-29T12:05:25;96943.97;;;10.19;70.47
79250;BME280;68679;51.030;7.584;2024-03-29T12:07:50;96940.25;;;10.20;69.67
79250;BME280;68679;51.030;7.584;2024-03-29T12:10:17;96929.91;;;10.24;69.64
79250;BME280;68679;51.030;7.584;2024-03-29T12:12:42;96941.16;;;10.25;69.86
79250;BME280;68679;51.030;7.584;2024-03-29T12:15:08;96937.16;;;10.27;70.21
79250;BME280;68679;51.030;7.584;2024-03-29T12:17:34;96953.63;;;10.28;70.17
79250;BME280;68679;51.030;7.584;2024-03-29T12:19:59;96958.53;;;10.29;70.49
79250;BME280;68679;51.030;7.584;2024-03-29T12:22:30;96952.97;;;10.31;70.05
79250;BME280;68679;51.030;7.584;2024-03-29T12:24:55;96951.91;;;10.32;69.96
79250;BME280;68679;51.030;7.584;2024-03-29T12:27:21;96960.22;;;10.34;69.87
79250;BME280;68679;51.030;7.584;2024-03-29T12:29:49;96966.97;;;10.35;70.22
79250;BME280;68679;51.030;7.584;2024-03-29T12:32:18;96983.13;;;10.37;69.81
79250;BME280;68679;51.030;7.584;2024-03-29T12:34:45;96985.44;;;10.38;70.16
79250;BME280;68679;51.030;7.584;2024-03-29T12:37:10;96989.94;;;10.38;70.37
79250;BME280;68679;51.030;7.584;2024-03-29T12:39:36;96991.47;;;10.39;70.50
79250;BME280;68679;51.030;7.584;2024-03-29T12:42:04;97004.09;;;10.37;70.18
79250;BME280;68679;51.030;7.584;2024-03-29T12:44:30;97013.50;;;10.38;70.23
79250;BME280;68679;51.030;7.584;2024-03-29T12:46:57;97013.50;;;10.38;70.60
79250;BME280;68679;51.030;7.584;2024-03-29T12:49:26;97022.13;;;10.38;70.24
79250;BME280;68679;51.030;7.584;2024-03-29T12:51:51;97024.75;;;10.38;70.31
79250;BME280;68679;51.030;7.584;2024-03-29T12:54:16;97022.91;;;10.39;70.40
79250;BME280;68679;51.030;7.584;2024-03-29T12:56:44;97025.94;;;10.41;70.51
79250;BME280;68679;51.030;7.584;2024-03-29T12:59:09;97025.19;;;10.40;70.69
79250;BME280;68679;51.030;7.584;2024-03-29T13:01:35;97021.81;;;10.40;70.55
79250;BME280;68679;51.030;7.584;2024-03-29T13:04:00;97028.56;;;10.41;70.47
79250;BME280;68679;51.030;7.584;2024-03-29T13:06:25;97030.88;;;10.42;70.34
79250;BME280;68679;51.030;7.584;2024-03-29T13:08:51;97037.66;;;10.43;70.49